This is the latest recevied weather packets stored in our database for station/object YO6LRV-3. If no packets are shown the sender has not sent any weather packets the latest 10 day(s).
| Time | Temp. | Humidity | Pressure | Rain* | Wind** | Luminosity | Snow |
|---|---|---|---|---|---|---|---|
| 1777893671 | 26.11° C | 32% | 1016.5 hPa | - | - | - | - |
| 1777888267 | 18.89° C | 43% | 1017.4 hPa | - | - | - | - |
| 1777887367 | 18.33° C | 45% | 1017.7 hPa | - | - | - | - |
| 1777886467 | 17.22° C | 46% | 1017.9 hPa | - | - | - | - |
| 1777885567 | 16.67° C | 46% | 1018 hPa | - | - | - | - |
| 1777884667 | 15.56° C | 46% | 1018.1 hPa | - | - | - | - |
| 1777881066 | 13.33° C | 47% | 1018.3 hPa | - | - | - | - |
| 1777880166 | 12.78° C | 46% | 1018.2 hPa | - | - | - | - |
| 1777879266 | 12.22° C | 46% | 1018.2 hPa | - | - | - | - |
| 1777878368 | 11.67° C | 47% | 1018.2 hPa | - | - | - | - |
| 1777877468 | 11.11° C | 47% | 1018.2 hPa | - | - | - | - |
| 1777875668 | 10° C | 46% | 1018.2 hPa | - | - | - | - |
| 1777874767 | 9.44° C | 47% | 1018.2 hPa | - | - | - | - |
| 1777873867 | 9.44° C | 47% | 1018.1 hPa | - | - | - | - |
| 1777872967 | 8.89° C | 48% | 1018.1 hPa | - | - | - | - |
| 1777872067 | 8.89° C | 47% | 1018.1 hPa | - | - | - | - |
| 1777871167 | 8.33° C | 47% | 1018 hPa | - | - | - | - |
| 1777870267 | 8.33° C | 47% | 1017.8 hPa | - | - | - | - |
| 1777869367 | 7.78° C | 47% | 1017.9 hPa | - | - | - | - |
| 1777868467 | 8.33° C | 46% | 1017.9 hPa | - | - | - | - |
| 1777867566 | 7.78° C | 47% | 1018 hPa | - | - | - | - |
| 1777866666 | 8.33° C | 47% | 1017.8 hPa | - | - | - | - |
| 1777865766 | 8.33° C | 46% | 1017.8 hPa | - | - | - | - |
| 1777846866 | 11.67° C | 38% | 1017.9 hPa | - | - | - | - |
| 1777844166 | 12.22° C | 37% | 1018.1 hPa | - | - | - | - |
* Rain since midnight (hover to see other rain measurements)
** Current wind speed in m/s (hover to see current wind gust speed)